Time;durP1;ratioP1;P1;durP2;ratioP2;P2;SDS_P1;SDS_P2;PMS_P1;PMS_P2;Temp;Humidity;BMP_temperature;BMP_pressure;BME280_temperature;BME280_humidity;BME280_pressure;Samples;Min_cycle;Max_cycle;Signal;HPM_P1;HPM_P2
2023/03/29 00:01:58;;;;;;;7.57;2.97;;;7.10;99.90;;;;;;4945496;28;37587;-74
2023/03/29 00:04:26;;;;;;;8.03;3.00;;;7.20;99.90;;;;;;4922789;28;37246;-74
2023/03/29 00:06:55;;;;;;;4.97;2.70;;;7.30;99.90;;;;;;4930211;28;36028;-76
2023/03/29 00:09:25;;;;;;;4.57;2.73;;;7.40;99.90;;;;;;4924000;28;38232;-75
2023/03/29 00:11:51;;;;;;;7.10;2.90;;;7.50;99.90;;;;;;4942628;28;38841;-75
2023/03/29 00:14:17;;;;;;;7.20;2.93;;;7.50;99.90;;;;;;4950474;28;37294;-74
2023/03/29 00:16:45;;;;;;;5.63;3.13;;;7.50;99.90;;;;;;4945212;28;36614;-74
2023/03/29 00:19:11;;;;;;;6.73;3.37;;;7.50;99.90;;;;;;4963970;28;38156;-73
2023/03/29 00:21:37;;;;;;;9.67;3.40;;;7.50;99.90;;;;;;4944696;28;37468;-73
2023/03/29 00:24:03;;;;;;;6.50;3.23;;;7.50;99.90;;;;;;4949544;28;38011;-74
2023/03/29 00:26:30;;;;;;;8.37;3.60;;;7.50;99.90;;;;;;4943333;28;37186;-74
2023/03/29 00:28:56;;;;;;;6.60;3.17;;;7.40;99.90;;;;;;4946203;28;38673;-74
2023/03/29 00:31:22;;;;;;;8.30;2.80;;;7.50;99.90;;;;;;4942331;28;38434;-75
2023/03/29 00:33:48;;;;;;;6.87;3.30;;;7.50;99.90;;;;;;4945282;28;38386;-75
2023/03/29 00:36:15;;;;;;;9.30;3.23;;;7.50;99.90;;;;;;4953122;28;39075;-76
2023/03/29 00:38:41;;;;;;;6.87;2.93;;;7.50;99.90;;;;;;4960644;28;38254;-75
2023/03/29 00:41:08;;;;;;;8.07;3.23;;;7.60;99.90;;;;;;4947498;28;39425;-76
2023/03/29 00:43:54;;;;;;;4.77;2.90;;;7.60;99.90;;;;;;4942737;28;37286;-76
2023/03/29 00:46:20;;;;;;;6.43;2.80;;;7.70;99.90;;;;;;4947622;28;37087;-73
2023/03/29 00:48:47;;;;;;;7.87;3.20;;;7.70;99.90;;;;;;4947258;28;37746;-73
2023/03/29 00:51:15;;;;;;;8.83;2.93;;;7.70;99.90;;;;;;4945055;28;38420;-73
2023/03/29 00:53:47;;;;;;;7.07;3.20;;;7.70;99.90;;;;;;4946825;28;38177;-74
2023/03/29 00:56:23;;;;;;;4.45;2.88;;;7.70;99.90;;;;;;4945743;28;37928;-74
2023/03/29 00:59:01;;;;;;;4.87;3.13;;;7.70;99.90;;;;;;4944993;28;38648;-74
2023/03/29 02:26:09;;;;;;;7.60;3.67;;;7.70;99.90;;;;;;5828044;23;20084;-81
2023/03/29 06:09:01;;;;;;;10.63;5.10;;;8.50;99.90;;;;;;5239075;23;20027;-84
2023/03/29 06:36:01;;;;;;;8.40;5.75;;;8.80;99.90;;;;;;5927291;23;20019;-80
2023/03/29 06:38:27;;;;;;;13.03;6.30;;;8.80;99.90;;;;;;5581449;23;36458;-83
2023/03/29 06:43:48;;;;;;;14.30;7.00;;;8.90;99.90;;;;;;5332945;23;20053;31
2023/03/29 06:46:15;;;;;;;11.87;6.03;;;8.90;99.90;;;;;;5351853;23;39212;-81
2023/03/29 06:48:41;;;;;;;9.47;6.47;;;8.90;99.90;;;;;;4940407;28;37262;-81
2023/03/29 06:51:08;;;;;;;12.83;6.90;;;8.90;99.90;;;;;;4932884;28;38132;-81
2023/03/29 06:53:34;;;;;;;12.53;6.63;;;8.90;99.90;;;;;;4930153;28;37390;-81
2023/03/29 06:56:04;;;;;;;13.97;6.77;;;9.00;99.90;;;;;;4941389;28;39731;-81
2023/03/29 06:58:30;;;;;;;10.47;6.40;;;9.00;99.90;;;;;;4948490;28;48611;-81
2023/03/29 07:01:00;;;;;;;11.53;6.53;;;9.10;99.90;;;;;;4926046;28;40909;-81
2023/03/29 08:13:47;;;;;;;11.20;7.22;;;10.20;99.90;;;;;;5429893;23;20061;-81
2023/03/29 08:16:16;;;;;;;13.63;6.95;;;10.30;99.90;;;;;;4918384;29;37891;-79
2023/03/29 08:18:43;;;;;;;10.35;6.43;;;10.30;99.90;;;;;;4915726;29;38357;-82
2023/03/29 08:21:09;;;;;;;14.10;6.60;;;10.50;99.90;;;;;;4900998;29;37133;-81
2023/03/29 09:19:41;;;;;;;14.25;6.85;;;11.40;99.90;;;;;;5052087;23;20063;31
2023/03/29 09:22:27;;;;;;;10.60;7.28;;;11.70;99.90;;;;;;4885455;29;36511;-81
2023/03/29 09:25:20;;;;;;;12.98;7.20;;;11.40;99.90;;;;;;4893998;29;36373;-81
2023/03/29 09:27:57;;;;;;;;;;;11.30;99.90;;;;;;4888791;29;47201;-81
2023/03/29 09:31:13;;;;;;;11.50;7.22;;;11.10;99.90;;;;;;4885557;29;38083;-81
2023/03/29 09:33:48;;;;;;;11.95;7.60;;;10.90;99.90;;;;;;4867645;29;47973;-81
2023/03/29 09:36:38;;;;;;;14.00;7.68;;;10.90;99.90;;;;;;4894976;29;36416;-81
2023/03/29 09:39:04;;;;;;;10.80;7.07;;;10.90;99.90;;;;;;4879285;29;39481;-81
2023/03/29 09:41:40;;;;;;;14.70;9.05;;;10.80;99.90;;;;;;4874326;29;38787;-80
2023/03/29 09:44:09;;;;;;;12.07;8.65;;;10.80;99.90;;;;;;4875507;29;37083;-79
2023/03/29 09:46:47;;;;;;;13.93;9.82;;;10.90;99.90;;;;;;4873230;29;36091;-80
2023/03/29 09:49:20;;;;;;;12.43;8.10;;;10.90;99.90;;;;;;4887949;29;37535;-81
2023/03/29 09:51:48;;;;;;;14.10;7.90;;;10.70;99.90;;;;;;4891203;29;37635;-82
2023/03/29 09:54:15;;;;;;;17.77;10.65;;;10.80;99.90;;;;;;4877319;29;37200;-81
2023/03/29 09:56:41;;;;;;;18.45;10.93;;;11.00;99.90;;;;;;4874866;29;37113;-81
2023/03/29 09:59:11;;;;;;;21.75;11.80;;;11.00;99.90;;;;;;4878779;29;39635;-80
2023/03/29 10:01:40;;;;;;;15.25;11.23;;;11.10;99.90;;;;;;4879942;29;36728;-80
2023/03/29 10:04:08;;;;;;;16.75;11.63;;;11.00;99.90;;;;;;4889591;29;36587;-79
2023/03/29 10:06:35;;;;;;;16.23;10.68;;;11.20;99.90;;;;;;4872175;29;36679;-78
2023/03/29 10:09:03;;;;;;;14.45;10.82;;;11.30;99.90;;;;;;4879070;29;37405;-79
2023/03/29 10:11:32;;;;;;;22.67;11.68;;;11.40;99.90;;;;;;4862472;29;38415;-79
2023/03/29 10:14:28;;;;;;;22.83;12.55;;;11.50;99.90;;;;;;4868897;29;37191;-81
2023/03/29 10:16:55;;;;;;;15.25;10.95;;;11.50;99.90;;;;;;4843630;29;46879;-80
2023/03/29 10:19:25;;;;;;;19.15;10.70;;;11.60;99.90;;;;;;4864140;29;37843;-79
2023/03/29 10:21:57;;;;;;;17.58;10.45;;;11.90;99.90;;;;;;4883689;29;38986;-79
2023/03/29 10:24:25;;;;;;;14.40;9.63;;;12.10;99.90;;;;;;4868583;29;36899;-80
2023/03/29 10:30:00;;;;;;;17.30;9.20;;;12.40;99.90;;;;;;4940623;28;20052;-80
2023/03/29 10:32:34;;;;;;;15.98;10.25;;;12.50;99.90;;;;;;5041421;23;37735;-80
2023/03/29 10:35:32;;;;;;;15.68;9.45;;;12.80;99.90;;;;;;4923595;28;38363;-82
2023/03/29 10:38:06;;;;;;;16.42;8.52;;;12.80;99.90;;;;;;4919420;28;47350;-80
2023/03/29 10:40:46;;;;;;;17.15;9.82;;;12.50;99.90;;;;;;4903889;29;46633;-80
2023/03/29 10:43:16;;;;;;;17.80;10.20;;;12.50;99.90;;;;;;4932867;28;38822;-80
2023/03/29 10:45:46;;;;;;;16.13;10.82;;;12.50;99.90;;;;;;4925982;29;37215;-80
2023/03/29 10:48:14;;;;;;;17.80;10.75;;;12.50;99.90;;;;;;4918729;28;36158;-81
2023/03/29 10:50:41;;;;;;;19.40;10.02;;;12.70;99.90;;;;;;4923712;28;38727;-80
2023/03/29 10:53:24;;;;;;;16.50;10.32;;;13.10;99.90;;;;;;4918697;29;38566;-81
2023/03/29 10:56:02;;;;;;;16.73;10.80;;;13.40;99.90;;;;;;4923207;28;37195;-81
2023/03/29 10:58:57;;;;;;;18.25;10.82;;;13.00;99.90;;;;;;4930583;29;47280;-81
2023/03/29 11:01:42;;;;;;;14.77;10.40;;;12.50;99.90;;;;;;4914242;29;40057;-81
2023/03/29 11:04:24;;;;;;;16.08;9.93;;;12.50;99.90;;;;;;4915082;28;38376;-80
2023/03/29 11:07:15;;;;;;;13.15;9.75;;;12.50;99.90;;;;;;4912577;29;38341;-81
2023/03/29 11:09:56;;;;;;;17.23;9.55;;;12.70;99.90;;;;;;4926294;29;47666;-80
2023/03/29 11:13:02;;;;;;;15.70;9.35;;;12.70;99.90;;;;;;4932522;29;38020;-80
2023/03/29 11:15:47;;;;;;;11.95;8.50;;;12.50;99.90;;;;;;4938780;29;47258;-81
2023/03/29 11:18:21;;;;;;;15.10;9.25;;;12.40;99.90;;;;;;4997868;23;36920;-82
2023/03/29 11:21:00;;;;;;;14.07;9.50;;;12.40;99.90;;;;;;4925216;28;37739;-77
2023/03/29 11:24:17;;;;;;;14.98;10.05;;;12.30;99.90;;;;;;4910818;28;47675;-78
2023/03/29 11:32:41;;;;;;;15.30;10.48;;;12.30;99.90;;;;;;5029636;23;20050;-82
2023/03/29 11:35:32;;;;;;;18.90;10.20;;;12.60;99.90;;;;;;4947305;28;37678;-82
2023/03/29 11:38:07;;;;;;;16.02;9.55;;;12.60;99.90;;;;;;4950087;28;38758;-80
2023/03/29 11:40:59;;;;;;;15.32;9.57;;;12.50;99.90;;;;;;4929938;28;47100;-80
2023/03/29 11:43:45;;;;;;;18.52;9.20;;;12.50;99.90;;;;;;4939608;28;36212;-80
2023/03/29 11:46:16;;;;;;;14.13;9.40;;;12.50;99.90;;;;;;4950951;28;38110;-81
2023/03/29 11:48:59;;;;;;;13.77;8.98;;;12.60;99.90;;;;;;4948265;28;38641;-80
2023/03/29 11:51:29;;;;;;;16.88;10.10;;;12.90;99.90;;;;;;4931128;28;37274;-81
2023/03/29 11:54:18;;;;;;;16.33;10.25;;;12.90;99.90;;;;;;4948310;28;36281;-80
2023/03/29 11:57:09;;;;;;;17.25;10.40;;;12.90;99.90;;;;;;4939056;28;47418;-80
2023/03/29 11:59:43;;;;;;;16.17;9.82;;;12.90;99.90;;;;;;4932988;28;48991;-79
2023/03/29 12:02:27;;;;;;;15.98;9.88;;;13.00;99.90;;;;;;4919174;28;36804;-81
2023/03/29 12:05:01;;;;;;;12.45;8.88;;;13.00;99.90;;;;;;4932944;28;37653;-79
2023/03/29 12:07:39;;;;;;;13.68;8.50;;;13.20;99.90;;;;;;4937780;28;36659;-82
2023/03/29 12:10:13;;;;;;;13.77;8.15;;;13.60;99.90;;;;;;4939985;28;38573;-82
2023/03/29 12:12:49;;;;;;;14.45;8.18;;;14.00;99.90;;;;;;4948128;28;38965;-82
2023/03/29 12:15:23;;;;;;;12.23;7.70;;;14.10;99.90;;;;;;4948901;28;37639;-81
2023/03/29 12:18:15;;;;;;;14.82;8.82;;;13.80;99.90;;;;;;4943049;28;37583;-83
2023/03/29 12:40:21;;;;;;;19.45;15.40;;;14.90;99.90;;;;;;5002028;23;20062;-84
2023/03/29 12:42:52;;;;;;;21.13;16.13;;;14.90;99.90;;;;;;4950149;28;38626;-83
2023/03/29 13:17:22;;;;;;;12.40;7.30;;;14.80;99.90;;;;;;5384095;23;20201;-83
2023/03/29 13:20:13;;;;;;;;;;;15.30;99.90;;;;;;4929598;29;38774;-81
2023/03/29 13:23:34;;;;;;;16.67;8.35;;;15.50;99.90;;;;;;4906019;29;48743;-82
2023/03/29 13:26:54;;;;;;;12.80;8.32;;;15.40;99.90;;;;;;4913446;29;48745;-81
2023/03/29 13:29:35;;;;;;;11.02;7.88;;;15.20;99.90;;;;;;4851377;29;48403;-81
2023/03/29 13:32:51;;;;;;;11.10;8.10;;;15.20;99.90;;;;;;4892861;28;37534;-83
2023/03/29 13:35:36;;;;;;;13.18;8.02;;;15.40;99.90;;;;;;4810125;29;38390;-82
2023/03/29 13:38:30;;;;;;;13.20;9.00;;;15.40;99.90;;;;;;4930373;29;37578;-81
2023/03/29 13:41:04;;;;;;;12.45;7.53;;;15.20;99.90;;;;;;4991880;23;38650;-82
2023/03/29 13:43:48;;;;;;;12.23;7.90;;;15.20;99.90;;;;;;4957825;28;48179;-83
2023/03/29 14:07:25;;;;;;;11.65;5.97;;;15.70;99.90;;;;;;5607877;23;21048;-83
2023/03/29 14:09:55;;;;;;;11.07;6.38;;;15.70;99.90;;;;;;4980652;23;39437;-81
2023/03/29 14:12:31;;;;;;;11.63;6.25;;;15.80;99.90;;;;;;4922298;28;36097;-81
2023/03/29 14:15:03;;;;;;;9.00;6.65;;;15.90;99.90;;;;;;4921331;29;37392;-82
2023/03/29 14:17:34;;;;;;;8.77;6.20;;;15.80;99.90;;;;;;4953545;28;35057;-81
2023/03/29 14:20:07;;;;;;;11.77;7.00;;;15.70;99.90;;;;;;4935854;28;39226;-81
2023/03/29 14:22:41;;;;;;;9.65;7.20;;;15.70;99.90;;;;;;4932374;28;46773;-81
2023/03/29 14:25:14;;;;;;;8.77;7.18;;;15.80;99.90;;;;;;4917184;28;37445;-81
2023/03/29 14:27:41;;;;;;;8.93;6.60;;;15.90;99.90;;;;;;4911680;28;36474;-82
2023/03/29 14:30:19;;;;;;;9.43;7.07;;;16.20;99.90;;;;;;4904273;29;37675;-83
2023/03/29 14:32:47;;;;;;;12.43;5.80;;;16.20;99.90;;;;;;4911323;29;37565;-84
2023/03/29 14:35:13;;;;;;;9.48;5.80;;;16.30;99.90;;;;;;4924945;28;38849;-81
2023/03/29 14:38:02;;;;;;;8.05;4.80;;;15.90;99.90;;;;;;4930712;28;36746;-81
2023/03/29 14:40:34;;;;;;;8.80;5.40;;;15.60;99.90;;;;;;4934056;28;47421;-81
2023/03/29 14:43:05;;;;;;;;;;;15.40;99.90;;;;;;4969326;28;38725;-81
2023/03/29 14:45:38;;;;;;;8.00;4.72;;;15.50;99.90;;;;;;4949141;28;49554;-81
2023/03/29 14:48:09;;;;;;;8.13;5.03;;;15.70;99.90;;;;;;4962571;28;36385;-82
2023/03/29 14:50:38;;;;;;;6.50;4.80;;;15.60;99.90;;;;;;4952025;28;39475;-80
2023/03/29 14:53:20;;;;;;;12.25;5.03;;;15.60;99.90;;;;;;4945692;28;39243;-81
2023/03/29 14:55:54;;;;;;;9.38;4.80;;;15.60;99.90;;;;;;4935802;29;38879;-82
2023/03/29 14:58:22;;;;;;;7.45;4.53;;;15.50;99.90;;;;;;4940795;28;36616;-83
2023/03/29 15:00:51;;;;;;;8.63;4.75;;;15.50;99.90;;;;;;4930004;28;37660;-83
2023/03/29 15:03:31;;;;;;;8.95;4.97;;;15.40;99.90;;;;;;4932790;28;40007;-83
2023/03/29 15:06:05;;;;;;;8.75;5.32;;;15.30;99.90;;;;;;4943847;28;38863;-82
2023/03/29 15:08:41;;;;;;;8.65;5.60;;;15.30;99.90;;;;;;4909757;28;49238;-82
2023/03/29 15:11:22;;;;;;;7.70;4.53;;;15.20;99.90;;;;;;4920342;29;38798;-82
2023/03/29 15:13:51;;;;;;;10.88;4.90;;;15.20;99.90;;;;;;4928237;29;38301;-82
2023/03/29 15:16:20;;;;;;;9.10;4.75;;;15.20;99.90;;;;;;4942280;28;37805;-80
2023/03/29 15:18:50;;;;;;;7.53;4.55;;;15.20;99.90;;;;;;4946632;28;37384;-83
2023/03/29 15:21:21;;;;;;;10.15;4.25;;;15.10;99.90;;;;;;4930464;28;39160;-83
2023/03/29 15:24:03;;;;;;;10.85;4.20;;;15.10;99.90;;;;;;4935366;28;39824;-83
2023/03/29 15:26:37;;;;;;;7.45;4.07;;;15.00;99.90;;;;;;4952988;28;47281;-82
2023/03/29 15:29:22;;;;;;;5.75;4.05;;;15.00;99.90;;;;;;4928527;29;38165;-82
2023/03/29 15:31:58;;;;;;;6.00;4.25;;;15.00;99.90;;;;;;4933297;28;39647;-83
2023/03/29 15:34:43;;;;;;;6.32;3.65;;;15.00;99.90;;;;;;4945264;28;38924;-83
2023/03/29 15:37:11;;;;;;;4.97;3.75;;;15.00;99.90;;;;;;4937229;29;37289;-83
2023/03/29 15:39:43;;;;;;;4.68;2.90;;;15.00;99.90;;;;;;4937253;28;36519;-83
2023/03/29 15:42:12;;;;;;;7.40;3.80;;;15.00;99.90;;;;;;4935181;28;40308;-83
2023/03/29 15:44:55;;;;;;;4.30;3.00;;;15.00;99.90;;;;;;4949766;29;39907;-82
2023/03/29 15:47:22;;;;;;;6.07;3.10;;;14.90;99.90;;;;;;4927329;28;38635;-82
2023/03/29 15:49:49;;;;;;;8.07;3.25;;;14.90;99.90;;;;;;4935662;29;38182;-82
2023/03/29 15:52:15;;;;;;;7.70;3.85;;;14.90;99.90;;;;;;4934510;29;37710;-82
2023/03/29 15:54:42;;;;;;;5.45;3.53;;;14.90;99.90;;;;;;4930065;28;37250;-82
2023/03/29 15:57:14;;;;;;;5.80;4.03;;;15.00;99.90;;;;;;4925119;29;38650;-82
2023/03/29 15:59:42;;;;;;;5.60;4.00;;;14.90;99.90;;;;;;4933764;29;38596;-82
2023/03/29 16:02:51;;;;;;;5.18;3.67;;;14.90;99.90;;;;;;4919174;28;39052;-82
2023/03/29 16:05:20;;;;;;;5.68;3.50;;;15.00;99.90;;;;;;4910960;28;37817;-82
2023/03/29 16:07:50;;;;;;;8.25;3.45;;;15.00;99.90;;;;;;4933161;29;37939;-83
2023/03/29 16:10:17;;;;;;;5.65;3.83;;;15.00;99.90;;;;;;4925204;28;36345;-82
2023/03/29 16:12:43;;;;;;;5.20;3.53;;;15.00;99.90;;;;;;4928105;29;37894;-83
2023/03/29 16:15:16;;;;;;;10.73;4.03;;;15.00;99.90;;;;;;4924213;28;39575;-82
2023/03/29 16:17:42;;;;;;;5.43;3.50;;;15.00;99.90;;;;;;4931608;29;40418;-83
2023/03/29 16:20:18;;;;;;;4.60;3.60;;;15.00;99.90;;;;;;4917504;29;35353;-82
2023/03/29 16:22:48;;;;;;;4.30;3.45;;;15.00;99.90;;;;;;4917717;29;47989;-83
2023/03/29 16:25:27;;;;;;;5.18;4.03;;;15.00;99.90;;;;;;4909602;29;38129;-82
2023/03/29 16:27:55;;;;;;;11.43;3.70;;;15.00;99.90;;;;;;4938527;28;36895;-83
2023/03/29 16:30:29;;;;;;;6.55;3.85;;;15.00;99.90;;;;;;4927343;28;38337;-83
2023/03/29 16:32:57;;;;;;;4.45;3.85;;;15.00;99.90;;;;;;4915450;29;38130;-83
2023/03/29 16:35:34;;;;;;;5.82;3.60;;;14.90;99.90;;;;;;4938345;28;38859;-82
2023/03/29 16:38:02;;;;;;;5.85;4.50;;;14.90;99.90;;;;;;4922626;29;37444;-82
2023/03/29 16:40:32;;;;;;;6.00;4.03;;;14.90;99.90;;;;;;4921388;29;49088;-82
2023/03/29 16:43:00;;;;;;;5.95;3.72;;;14.90;99.90;;;;;;4932012;29;39247;-83
2023/03/29 16:45:37;;;;;;;6.78;4.80;;;14.90;99.90;;;;;;4928794;29;39967;-82
2023/03/29 16:48:06;;;;;;;5.60;3.70;;;14.90;99.90;;;;;;4931560;29;36900;-82
2023/03/29 16:50:35;;;;;;;8.35;4.25;;;14.90;99.90;;;;;;4927714;29;36238;-82
2023/03/29 16:53:07;;;;;;;5.75;4.22;;;14.90;99.90;;;;;;4943882;28;40061;-82
2023/03/29 16:55:45;;;;;;;6.35;4.53;;;14.90;99.90;;;;;;4934208;29;47623;-82
2023/03/29 16:58:23;;;;;;;5.45;4.07;;;14.90;99.90;;;;;;4932012;28;37385;-82
2023/03/29 17:01:33;;;;;;;7.47;4.50;;;14.80;99.90;;;;;;4916351;29;37623;-82
2023/03/29 17:04:38;;;;;;;6.90;4.22;;;14.80;99.90;;;;;;4938087;28;40302;-82
2023/03/29 17:07:05;;;;;;;7.45;4.47;;;14.80;99.90;;;;;;4947970;28;38849;-82
2023/03/29 17:09:45;;;;;;;6.22;4.57;;;14.80;99.90;;;;;;4951830;29;37052;-81
2023/03/29 17:12:24;;;;;;;6.40;4.05;;;14.80;99.90;;;;;;4932503;29;36383;-82
2023/03/29 17:14:52;;;;;;;6.15;3.97;;;14.80;99.90;;;;;;4921229;29;37624;-83
2023/03/29 17:17:31;;;;;;;5.85;4.32;;;14.70;99.90;;;;;;4929577;29;36859;-82
2023/03/29 17:20:13;;;;;;;7.65;4.90;;;14.70;99.90;;;;;;4940064;29;38614;-83
2023/03/29 17:22:40;;;;;;;5.75;5.13;;;14.70;99.90;;;;;;4927471;29;47946;-82
2023/03/29 17:25:15;;;;;;;5.47;4.68;;;14.70;99.90;;;;;;4910227;29;38463;-82
2023/03/29 17:27:42;;;;;;;6.82;5.22;;;14.60;99.90;;;;;;4929845;29;37331;-82
2023/03/29 17:30:24;;;;;;;6.30;4.90;;;14.60;99.90;;;;;;4917888;29;38640;-82
2023/03/29 17:32:51;;;;;;;8.25;4.80;;;14.50;99.90;;;;;;4919614;29;37693;-82
2023/03/29 17:38:41;;;;;;;10.02;5.05;;;14.50;99.90;;;;;;4913235;29;50104;-82
2023/03/29 17:41:10;;;;;;;8.85;5.32;;;14.50;99.90;;;;;;4909780;29;36735;-82
2023/03/29 17:43:44;;;;;;;9.77;5.80;;;14.40;99.90;;;;;;4917705;29;37798;-83
2023/03/29 17:46:21;;;;;;;9.20;5.13;;;14.40;99.90;;;;;;4917953;29;39345;-82
2023/03/29 17:48:59;;;;;;;8.35;6.00;;;14.30;99.90;;;;;;4911053;29;36945;-83
2023/03/29 17:51:26;;;;;;;9.35;6.07;;;14.30;99.90;;;;;;4909291;29;37122;-82
2023/03/29 17:53:55;;;;;;;10.77;6.35;;;14.20;99.90;;;;;;4914828;29;37081;-82
2023/03/29 17:56:22;;;;;;;7.63;5.85;;;14.20;99.90;;;;;;4915199;29;39637;-82
2023/03/29 17:58:54;;;;;;;10.75;6.18;;;14.20;99.90;;;;;;4916566;29;39097;-82
2023/03/29 18:01:52;;;;;;;9.77;6.45;;;14.10;99.90;;;;;;4913767;29;37457;-83
2023/03/29 18:04:18;;;;;;;8.73;6.30;;;14.10;99.90;;;;;;4924225;29;39229;-82
2023/03/29 18:06:49;;;;;;;12.43;6.78;;;14.10;99.90;;;;;;4926358;29;39825;-82
2023/03/29 18:09:26;;;;;;;10.02;6.13;;;14.00;99.90;;;;;;4931182;28;37684;-82
2023/03/29 18:11:58;;;;;;;8.07;6.28;;;14.00;99.90;;;;;;4906102;29;38406;-83
2023/03/29 18:14:35;;;;;;;8.75;6.63;;;14.00;99.90;;;;;;4883685;29;38465;-82
2023/03/29 18:17:07;;;;;;;9.82;6.93;;;13.90;99.90;;;;;;4912968;29;39643;-82
2023/03/29 18:19:35;;;;;;;9.85;7.47;;;13.90;99.90;;;;;;4907572;29;48802;-82
2023/03/29 18:22:02;;;;;;;13.10;7.47;;;13.80;99.90;;;;;;4908982;29;38511;-83
2023/03/29 18:24:34;;;;;;;13.68;7.55;;;13.80;99.90;;;;;;4919547;29;49239;-82
2023/03/29 18:27:02;;;;;;;11.30;7.47;;;13.80;99.90;;;;;;4898568;29;38080;-83
2023/03/29 18:29:29;;;;;;;11.40;8.15;;;13.80;99.90;;;;;;4912244;29;48190;-82
2023/03/29 18:32:01;;;;;;;10.27;7.75;;;13.80;99.90;;;;;;4927493;29;36946;-83
2023/03/29 18:34:28;;;;;;;11.05;7.85;;;13.80;99.90;;;;;;4907990;29;47555;-82
2023/03/29 18:36:57;;;;;;;12.93;7.95;;;13.80;99.90;;;;;;4913049;29;36547;-82
2023/03/29 18:39:33;;;;;;;10.93;8.10;;;13.80;99.90;;;;;;4906080;29;37654;-83
2023/03/29 18:42:08;;;;;;;;;;;13.70;99.90;;;;;;4914667;29;39216;-82
2023/03/29 18:44:35;;;;;;;14.82;7.78;;;13.60;99.90;;;;;;4913936;29;38909;-83
2023/03/29 18:47:03;;;;;;;8.95;7.45;;;13.60;99.90;;;;;;4924425;28;39155;-83
2023/03/29 18:49:31;;;;;;;15.25;8.70;;;13.60;99.90;;;;;;4933017;29;40318;-82
2023/03/29 18:51:58;;;;;;;10.52;7.90;;;13.50;99.90;;;;;;4909217;29;37639;-82
2023/03/29 18:54:33;;;;;;;12.93;7.78;;;13.60;99.90;;;;;;4910542;29;36170;-82
2023/03/29 18:56:59;;;;;;;12.70;8.40;;;13.60;99.90;;;;;;4920377;28;38259;-82
2023/03/29 18:59:27;;;;;;;13.18;8.88;;;13.60;99.90;;;;;;4899987;29;39463;-83
2023/03/29 19:01:53;;;;;;;13.52;8.18;;;13.70;99.90;;;;;;4912688;29;39419;-83
2023/03/29 19:04:20;;;;;;;13.73;7.97;;;13.80;99.90;;;;;;4904108;29;37366;-80
2023/03/29 19:06:48;;;;;;;9.82;7.65;;;13.80;99.90;;;;;;4910461;29;39049;-80
2023/03/29 19:09:17;;;;;;;17.20;8.50;;;13.80;99.90;;;;;;4910869;29;37920;-80
2023/03/29 19:11:46;;;;;;;12.25;7.72;;;13.80;99.90;;;;;;4910068;28;38362;-83
2023/03/29 19:14:24;;;;;;;11.45;6.78;;;13.90;99.90;;;;;;4911255;29;38720;-81
2023/03/29 19:16:51;;;;;;;10.65;6.88;;;13.90;99.90;;;;;;4906642;28;39437;-83
2023/03/29 19:19:18;;;;;;;14.95;6.78;;;13.90;99.90;;;;;;4911489;29;37603;-81
2023/03/29 19:21:48;;;;;;;11.70;7.10;;;14.00;99.90;;;;;;4909276;29;40379;-82
2023/03/29 19:24:26;;;;;;;10.98;6.60;;;14.10;99.90;;;;;;4917902;29;37644;-81
2023/03/29 19:26:57;;;;;;;15.00;7.60;;;14.00;99.90;;;;;;4909121;29;40323;-81
2023/03/29 19:29:24;;;;;;;12.07;7.30;;;14.00;99.90;;;;;;4909571;29;37940;-81
2023/03/29 19:31:53;;;;;;;17.65;7.68;;;13.90;99.90;;;;;;4906859;29;38169;-81
2023/03/29 19:34:23;;;;;;;12.82;7.55;;;14.00;99.90;;;;;;4906601;29;36907;-81
2023/03/29 19:36:57;;;;;;;14.82;6.88;;;14.00;99.90;;;;;;4910372;29;39855;-81
2023/03/29 19:39:28;;;;;;;20.02;6.72;;;14.10;99.90;;;;;;4908257;28;39031;-81
2023/03/29 19:42:53;;;;;;;;;;;;;;;;;;;;;
2023/03/29 19:50:33;;;;;;;14.82;7.07;;;14.00;99.90;;;;;;5495360;23;20055;-83
2023/03/29 19:55:43;;;;;;;12.60;6.88;;;14.00;99.90;;;;;;5803171;23;20110;-82
2023/03/29 20:00:57;;;;;;;14.90;5.97;;;13.90;99.90;;;;;;5990149;23;21291;-80
2023/03/29 20:14:01;;;;;;;14.55;7.18;;;13.50;99.90;;;;;;4960821;28;40152;-81
2023/03/29 20:24:33;;;;;;;11.73;7.40;;;13.30;99.90;;;;;;4554388;26;20033;-82
2023/03/29 20:37:09;;;;;;;13.68;6.93;;;13.30;99.90;;;;;;4959743;28;39914;-82
2023/03/29 20:46:21;;;;;;;13.93;7.22;;;13.50;99.90;;;;;;4936727;28;42256;-82
2023/03/29 21:02:27;;;;;;;10.88;4.55;;;14.10;99.90;;;;;;5330104;23;20191;-81
2023/03/29 21:05:01;;;;;;;9.90;4.50;;;14.10;99.90;;;;;;4915375;28;49156;-82
2023/03/29 21:11:40;;;;;;;12.77;3.80;;;14.30;99.90;;;;;;4949708;28;40245;-80
2023/03/29 21:14:49;;;;;;;9.05;3.90;;;14.40;99.90;;;;;;4911876;28;38615;-82
2023/03/29 21:17:30;;;;;;;6.85;3.38;;;14.40;99.90;;;;;;4921106;29;38760;-80
